Date,TemperatureHighF,TemperatureAvgF,TemperatureLowF,DewpointHighF,DewpointAvgF,DewpointLowF,HumidityHigh,HumidityAvg,HumidityLow,PressureMaxIn,PressureMinIn,WindSpeedMaxMPH,WindSpeedAvgMPH,GustSpeedMaxMPH,PrecipitationSumIn
2013-1-1,46.0,42.6,39.0,44.0,36.3,18.0,93,81,38,30.16,29.96,0,0,0,0.69
2013-1-2,44.0,40.6,37.0,42.0,37.4,34.0,93,88,83,30.11,29.92,0,0,2,0.17
2013-1-3,44.0,36.0,30.0,36.0,30.4,20.0,93,81,55,30.32,30.09,4,0,6,0.00
2013-1-4,45.0,32.5,25.0,28.0,20.6,17.0,83,63,34,30.40,30.30,10,0,10,0.00
2013-1-5,50.0,36.7,25.0,32.0,22.5,18.0,79,59,32,30.42,30.26,3,0,4,0.01
2013-1-6,51.0,39.8,36.0,40.0,33.0,29.0,93,78,51,30.26,30.07,5,0,11,0.05
2013-1-7,54.0,39.3,29.0,32.0,26.2,23.0,83,62,32,30.40,30.21,3,0,4,0.01
2013-1-8,56.0,42.2,31.0,44.0,33.3,24.0,84,71,57,30.44,30.33,3,0,5,0.00
2013-1-9,54.0,50.3,47.0,51.0,46.5,42.0,91,87,82,30.45,30.37,0,0,1,0.00
2013-1-10,62.0,55.7,49.0,52.0,49.7,47.0,94,81,65,30.45,30.25,3,1,9,0.05
2013-1-11,59.0,56.7,54.0,57.0,54.3,50.0,94,92,86,30.26,30.08,3,2,3,0.40
2013-1-12,68.0,61.7,59.0,61.0,56.9,53.0,94,85,65,30.13,30.02,9,0,9,0.21
2013-1-13,64.0,60.4,59.0,57.0,54.7,53.0,92,82,75,30.05,29.97,10,1,10,0.31
2013-1-14,60.0,57.5,51.0,58.0,55.5,49.0,95,94,93,30.09,29.96,0,0,0,2.63
2013-1-15,57.0,55.6,51.0,56.0,54.4,49.0,95,95,94,30.06,29.92,0,0,0,2.45
2013-1-16,58.0,55.0,52.0,56.0,52.8,50.0,95,93,83,29.96,29.86,1,0,4,1.26
2013-1-17,52.0,46.1,34.0,50.0,43.2,27.0,95,90,74,30.18,29.62,0,0,0,1.74
2013-1-18,48.0,37.1,28.0,30.0,25.1,20.0,84,63,36,30.49,30.18,3,0,4,0.08
2013-1-19,52.0,39.2,30.0,33.0,26.1,23.0,83,61,33,30.47,30.22,3,0,4,0.00
2013-1-20,55.0,43.3,35.0,36.0,27.5,20.0,68,55,36,30.23,30.08,10,1,15,0.00
2013-1-21,51.0,37.4,28.0,31.0,23.0,12.0,82,58,37,30.11,30.02,6,0,19,0.00
2013-1-22,37.0,26.5,19.0,13.0,7.4,2.0,59,45,26,30.31,30.08,7,1,10,0.00
2013-1-23,46.0,33.6,24.0,27.0,18.7,7.0,67,54,45,30.36,30.14,8,1,11,0.00
2013-1-24,43.0,37.3,29.0,33.0,18.5,8.0,73,49,26,30.37,30.09,5,0,13,0.00
2013-1-25,39.0,29.0,22.0,37.0,21.9,8.0,93,76,42,30.40,30.15,0,0,0,0.35
2013-1-26,52.0,39.5,32.0,35.0,27.0,21.0,93,64,34,30.33,30.17,5,0,10,0.17
2013-1-27,48.0,39.0,31.0,34.0,28.4,22.0,78,66,52,30.47,30.32,6,2,6,0.01
2013-1-28,59.0,47.9,39.0,49.0,39.0,29.0,89,71,60,30.43,30.25,6,2,6,0.00
2013-1-29,62.0,53.0,44.0,56.0,48.7,42.0,93,85,67,30.26,29.98,0,0,1,0.21
2013-1-30,60.0,54.4,40.0,58.0,51.8,35.0,94,91,83,29.98,29.45,0,0,0,2.67
2013-1-31,39.0,34.7,28.0,35.0,23.5,19.0,89,64,49,30.09,29.56,10,2,14,0.41
2013-2-1,37.0,27.5,20.0,29.0,13.6,5.0,84,56,37,30.38,30.02,12,1,12,0.02
2013-2-2,32.0,25.9,20.0,30.0,18.0,5.0,92,73,45,30.39,30.13,0,0,1,0.01
2013-2-3,41.0,33.2,29.0,33.0,26.7,21.0,92,77,60,30.13,30.00,13,1,14,0.37
2013-2-4,47.0,35.3,26.0,28.0,22.1,16.0,79,60,40,30.17,30.03,2,0,3,0.01
2013-2-5,54.0,43.0,37.0,40.0,32.7,23.0,86,67,50,30.03,29.94,6,0,10,0.01
2013-2-6,59.0,47.3,38.0,37.0,28.3,20.0,78,52,24,30.17,30.02,6,1,10,0.01
2013-2-7,49.0,44.4,42.0,42.0,33.7,21.0,92,68,40,30.19,29.94,2,0,3,0.32
2013-2-8,49.0,41.7,32.0,44.0,36.7,26.0,94,83,58,30.16,29.90,5,0,12,0.09
2013-2-9,58.0,41.3,27.0,31.0,24.1,19.0,82,55,22,30.32,30.12,2,0,3,0.01
2013-2-10,52.0,44.4,41.0,45.0,29.0,20.0,93,58,28,30.32,30.12,8,0,11,0.98
2013-2-11,54.0,49.1,44.0,50.0,43.6,26.0,93,82,47,30.14,30.02,3,0,3,0.87
2013-2-12,51.0,43.1,37.0,38.0,29.4,23.0,92,60,37,30.10,29.88,2,0,4,0.27
2013-2-13,49.0,39.8,34.0,42.0,36.4,29.0,93,87,69,29.92,29.67,10,2,12,0.60
2013-2-14,50.0,40.3,31.0,34.0,29.2,27.0,87,66,43,30.07,29.91,4,1,10,0.01
2013-2-15,53.0,40.0,33.0,37.0,31.2,28.0,87,72,44,30.12,29.97,11,2,16,0.02
2013-2-16,35.0,28.9,21.0,31.0,20.9,11.0,84,72,42,30.07,29.90,4,2,7,0.01
2013-2-17,35.0,25.5,17.0,15.0,10.5,7.0,69,53,36,30.32,30.07,10,2,10,0.02
2013-2-18,52.0,36.9,24.0,29.0,20.0,11.0,70,51,36,30.40,30.17,10,3,17,0.01
2013-2-19,49.0,38.7,32.0,40.0,27.0,15.0,92,65,37,30.18,29.93,11,3,19,0.32
2013-2-20,45.0,34.4,26.0,17.0,9.6,3.0,58,38,18,30.17,30.09,5,1,8,0.01
2013-2-21,59.0,41.0,26.0,36.0,19.9,10.0,90,46,19,30.22,30.04,4,0,7,0.51
2013-2-22,42.0,39.4,36.0,40.0,37.3,33.0,94,92,90,30.20,30.06,0,0,0,0.95
2013-2-23,52.0,46.6,42.0,49.0,44.4,37.0,95,92,70,30.08,29.82,0,0,1,0.27
2013-2-24,58.0,45.5,36.0,39.0,29.7,23.0,85,58,30,30.01,29.87,8,0,10,0.01
2013-2-25,51.0,42.2,35.0,38.0,28.6,22.0,86,59,46,30.06,29.90,3,0,4,0.00
2013-2-26,47.0,43.8,38.0,45.0,40.5,32.0,93,88,75,29.91,29.52,3,0,10,1.52
2013-2-27,51.0,40.3,34.0,37.0,30.9,28.0,87,71,46,29.82,29.65,12,1,15,0.05
2013-2-28,37.0,31.8,29.0,31.0,25.0,22.0,80,76,70,29.96,29.76,10,0,10,0.02
2013-3-1,35.0,31.3,29.0,27.0,25.8,24.0,89,80,71,29.99,29.93,5,0,9,0.01
2013-3-2,37.0,30.6,25.0,29.0,24.9,17.0,91,80,61,30.01,29.90,6,0,11,0.02
2013-3-3,34.0,25.6,21.0,19.0,15.8,12.0,78,67,51,30.09,29.98,4,0,11,0.01
2013-3-4,52.0,36.6,22.0,32.0,20.4,13.0,73,53,29,30.21,30.08,4,1,9,0.01
2013-3-5,49.0,43.0,31.0,47.0,36.4,25.0,93,79,48,30.10,29.66,0,0,0,0.80
2013-3-6,31.0,27.7,24.0,27.0,23.4,20.0,88,83,77,30.21,29.74,6,0,12,0.13
2013-3-7,52.0,34.9,24.0,35.0,25.7,20.0,88,71,42,30.30,30.20,5,0,5,0.03
2013-3-8,59.0,39.4,23.0,33.0,21.5,15.0,92,57,20,30.34,30.24,5,0,10,0.01
2013-3-9,65.0,47.3,34.0,33.0,25.7,17.0,65,44,27,30.32,30.17,3,0,4,0.00
2013-3-10,64.0,52.8,45.0,37.0,31.5,28.0,60,44,32,30.23,30.09,11,1,11,0.00
2013-3-11,54.0,50.2,48.0,49.0,45.6,37.0,94,85,53,30.10,29.78,10,2,10,0.84
2013-3-12,55.0,45.9,37.0,49.0,37.1,29.0,94,74,41,30.04,29.76,5,2,6,0.74
2013-3-13,43.0,36.6,28.0,30.0,23.2,16.0,70,58,41,30.22,30.04,10,2,18,0.00
2013-3-14,48.0,33.3,22.0,18.0,15.2,10.0,73,50,26,30.33,30.21,4,1,11,0.00
2013-3-15,66.0,49.6,35.0,44.0,33.1,17.0,74,55,34,30.26,29.95,12,2,18,0.00
2013-3-16,72.0,61.5,52.0,47.0,42.9,39.0,60,51,39,29.95,29.75,18,2,18,0.00
2013-3-17,69.0,60.8,54.0,47.0,43.6,40.0,66,54,36,29.91,29.80,11,1,12,0.00
2013-3-18,56.0,49.1,45.0,47.0,45.2,43.0,93,87,68,29.92,29.79,0,0,0,0.21
2013-3-19,54.0,45.7,38.0,44.0,30.6,13.0,94,61,29,30.08,29.84,16,2,16,0.02
2013-3-20,52.0,40.3,31.0,29.0,15.2,6.0,84,37,23,30.10,29.86,10,2,11,0.01
2013-3-21,38.0,28.8,20.0,26.0,12.7,8.0,82,52,36,30.00,29.83,8,1,10,0.01
2013-3-22,43.0,33.5,25.0,28.0,17.9,11.0,67,53,41,30.09,30.00,1,0,8,0.01
2013-3-23,54.0,43.9,36.0,46.0,37.5,25.0,93,79,56,30.06,29.81,3,0,5,0.05
2013-3-24,53.0,45.7,39.0,48.0,42.7,36.0,94,89,76,29.88,29.45,4,0,14,1.18
2013-3-25,39.0,29.7,26.0,36.0,23.9,20.0,89,79,69,29.99,29.52,16,2,20,0.18
2013-3-26,34.0,29.5,25.0,27.0,24.2,22.0,89,80,69,30.27,29.98,8,1,14,0.13
2013-3-27,45.0,34.1,26.0,28.0,21.9,18.0,82,62,41,30.33,30.24,9,0,13,0.01
2013-3-28,53.0,40.2,30.0,24.0,20.2,15.0,66,47,23,30.33,30.24,17,1,18,0.01
2013-3-29,46.0,38.2,30.0,38.0,27.5,18.0,93,67,44,30.35,30.27,4,0,6,0.16
2013-3-30,60.0,47.4,38.0,45.0,38.5,36.0,94,75,45,30.27,30.04,4,0,5,0.23
2013-3-31,60.0,52.2,47.0,51.0,47.4,-99.9,93,87,72,30.05,29.83,6,0,8,0.72
2013-4-1,58.0,51.3,43.0,49.0,41.2,34.0,91,70,49,29.99,29.83,10,1,13,0.07
2013-4-2,58.0,46.2,36.0,34.0,24.0,12.0,73,46,17,30.13,29.98,10,1,10,0.01
2013-4-3,44.0,44.0,44.0,25.0,25.0,25.0,46,46,46,30.14,30.14,0,0,0,0.00
2013-4-4,38.0,37.0,36.0,36.0,34.9,33.0,94,92,89,30.11,29.96,0,0,2,1.16
2013-4-5,60.0,45.9,38.0,45.0,37.1,31.0,95,75,38,30.09,29.94,7,1,9,0.03
2013-4-6,66.0,51.9,38.0,37.0,33.2,30.0,76,51,30,30.20,30.08,7,1,13,0.00
2013-4-7,66.0,56.2,47.0,44.0,37.7,31.0,60,50,43,30.16,30.04,7,0,14,0.00
2013-4-8,71.0,62.7,56.0,52.0,47.2,42.0,71,58,45,30.10,30.01,9,2,14,0.00
2013-4-9,78.0,66.2,55.0,57.0,52.0,49.0,81,62,43,30.14,30.05,9,2,11,0.00
2013-4-10,82.0,71.7,62.0,57.0,53.8,52.0,71,54,38,30.07,29.88,8,1,10,0.00
2013-4-11,73.0,65.5,60.0,61.0,54.6,51.0,90,69,50,29.88,29.61,10,3,15,0.00
2013-4-12,65.0,58.8,49.0,57.0,47.5,36.0,93,68,44,29.87,29.57,9,3,10,0.00
2013-4-13,68.0,56.3,45.0,39.0,33.9,26.0,71,46,22,30.02,29.87,9,4,10,0.00
2013-4-14,64.0,54.3,46.0,47.0,37.6,32.0,90,54,38,30.05,29.94,9,1,11,0.01
2013-4-15,74.0,60.0,50.0,57.0,52.0,47.0,94,77,51,30.14,29.93,14,2,14,0.01
2013-4-16,78.0,65.8,58.0,59.0,55.7,53.0,88,71,48,30.21,30.09,10,1,11,0.00
2013-4-17,79.0,67.3,62.0,63.0,56.8,52.0,80,70,50,30.16,30.02,4,0,8,0.00
2013-4-18,71.0,64.2,60.0,59.0,55.8,53.0,86,75,56,30.04,29.86,10,1,16,0.00
2013-4-19,65.0,58.2,41.0,60.0,53.3,33.0,93,84,63,29.93,29.66,5,3,5,0.00
2013-4-20,59.0,45.3,33.0,34.0,28.9,25.0,78,55,33,30.27,29.92,8,2,8,0.00
2013-4-21,64.0,49.1,38.0,37.0,31.5,27.0,76,52,32,30.37,30.25,10,1,13,0.00
2013-4-22,66.0,52.6,41.0,41.0,37.2,34.0,78,58,33,30.35,30.12,5,1,11,0.00
2013-4-23,70.0,54.9,42.0,45.0,37.9,30.0,71,54,36,30.22,30.04,10,1,14,0.00
2013-4-24,67.0,59.8,54.0,57.0,51.5,44.0,92,75,57,30.10,29.98,12,1,12,0.00
2013-4-25,65.0,51.8,38.0,47.0,34.5,20.0,90,59,20,30.30,30.06,5,0,10,0.00
2013-4-26,67.0,53.6,39.0,38.0,33.0,28.0,69,47,27,30.38,30.27,9,0,9,0.00
2013-4-27,58.0,49.9,46.0,49.0,45.0,37.0,94,85,46,30.33,30.19,0,0,0,0.00
2013-4-28,53.0,50.8,49.0,52.0,47.7,-99.9,95,93,91,30.21,29.99,0,0,0,0.00
2013-4-29,70.0,58.4,51.0,55.0,50.5,47.0,94,78,45,30.02,29.88,6,0,9,0.00
2013-4-30,74.0,61.1,51.0,55.0,50.7,45.0,92,71,39,30.08,29.93,6,0,9,0.00
2013-5-1,71.0,61.9,54.0,54.0,51.0,47.0,86,69,48,30.16,30.07,5,1,14,0.00
2013-5-2,65.0,59.5,56.0,54.0,50.4,47.0,81,72,63,30.18,30.11,5,0,8,0.00
2013-5-3,64.0,57.4,54.0,51.0,48.9,46.0,80,73,56,30.14,29.99,10,1,13,0.08
2013-5-4,54.0,51.3,48.0,47.0,45.0,39.0,91,79,65,29.99,29.88,0,0,0,0.79
2013-5-5,54.0,50.7,49.0,51.0,47.6,46.0,93,90,84,29.89,29.75,2,0,3,1.97
2013-5-6,59.0,50.2,45.0,47.0,44.2,41.0,93,81,58,29.89,29.74,9,1,11,0.59
2013-5-7,64.0,51.7,41.0,48.0,43.0,39.0,94,74,45,29.95,29.87,3,0,10,0.00
2013-5-8,66.0,56.3,52.0,56.0,51.0,46.0,93,83,67,30.04,29.91,5,0,6,0.23
2013-5-9,75.0,61.0,50.0,59.0,51.4,48.0,95,74,42,30.11,30.01,3,0,11,0.21
2013-5-10,72.0,61.8,55.0,58.0,52.3,-99.9,89,75,58,30.07,29.91,5,0,10,0.11
2013-5-11,68.0,59.5,56.0,60.0,55.9,54.0,94,88,66,29.95,29.85,0,0,0,0.20
2013-5-12,60.0,52.4,46.0,51.0,39.6,-99.9,93,66,40,30.07,29.88,0,0,0,0.03
2013-5-13,61.0,48.7,40.0,37.0,32.7,29.0,77,56,31,30.18,30.07,0,0,0,0.01
2013-5-14,72.0,55.7,41.0,51.0,41.7,33.0,78,61,42,30.24,30.08,0,0,0,0.00
2013-5-15,82.0,69.0,57.0,57.0,52.2,49.0,81,58,32,30.12,29.94,0,0,0,0.01
2013-5-16,65.0,62.7,61.0,52.0,51.9,51.0,72,68,62,29.98,29.96,0,0,0,0.01
2013-5-19,70.0,65.8,62.0,65.0,62.0,59.0,94,88,79,30.06,29.95,0,0,0,0.01
2013-5-20,81.0,67.0,58.0,67.0,60.8,56.0,94,82,54,30.07,29.97,4,0,7,0.01
2013-5-21,81.0,69.1,61.0,67.0,62.3,59.0,94,81,53,29.99,29.86,4,0,4,0.01
2013-5-22,78.0,64.7,59.0,66.0,60.9,57.0,95,88,66,29.96,29.83,2,0,13,0.28
2013-5-23,76.0,66.7,60.0,62.0,57.4,52.0,94,74,52,29.91,29.83,3,0,9,0.30
2013-5-24,68.0,60.2,51.0,52.0,43.9,33.0,87,57,30,30.19,29.90,5,0,10,0.01
2013-5-25,73.0,57.2,43.0,45.0,39.6,36.0,81,55,28,30.30,30.18,10,0,10,0.00
2013-5-26,70.0,58.2,50.0,55.0,44.3,38.0,90,62,32,30.27,30.16,3,0,8,0.02
2013-5-27,76.0,64.7,53.0,58.0,51.8,45.0,82,64,49,30.24,30.09,3,1,5,0.01
2013-5-28,78.0,68.7,62.0,60.0,57.3,55.0,84,68,47,30.16,30.07,4,1,6,0.00
2013-5-29,79.0,68.9,60.0,62.0,58.4,55.0,87,71,46,30.17,30.08,2,0,6,0.00
2013-5-30,77.0,68.2,62.0,63.0,58.5,56.0,85,72,55,30.20,30.09,4,0,4,0.00
2013-5-31,77.0,69.7,65.0,61.0,59.1,57.0,84,70,50,30.16,30.04,6,0,10,0.00
2013-6-1,77.0,70.2,66.0,63.0,61.2,60.0,84,74,57,30.06,29.96,10,1,10,0.02
2013-6-2,69.0,65.9,64.0,67.0,62.3,-99.9,94,92,87,29.99,29.85,0,0,0,1.37
2013-6-3,76.0,67.5,62.0,68.0,60.5,57.0,96,80,55,29.93,29.83,4,0,8,0.15
2013-6-4,77.0,67.1,57.0,64.0,59.0,54.0,94,77,55,30.00,29.91,3,0,4,0.00
2013-6-5,79.0,69.7,62.0,66.0,62.9,59.0,94,80,61,30.00,29.85,3,0,10,1.42
2013-6-6,72.0,65.2,60.0,67.0,62.4,58.0,95,91,80,29.90,29.73,2,1,2,1.72
2013-6-7,78.0,67.6,61.0,67.0,63.2,59.0,93,86,61,29.80,29.64,2,0,13,0.55
2013-6-8,76.0,66.0,59.0,65.0,60.4,57.0,94,83,62,30.06,29.79,1,0,4,0.55
2013-6-9,78.0,67.1,63.0,69.0,63.2,60.0,94,88,64,30.08,29.96,6,0,9,0.87
2013-6-10,73.0,66.3,63.0,65.0,61.8,59.0,95,87,63,29.98,29.88,3,0,15,1.91
2013-6-11,79.0,69.9,63.0,68.0,62.5,59.0,96,79,53,29.99,29.91,3,0,4,0.13
2013-6-12,83.0,74.3,66.0,72.0,67.7,62.0,90,80,67,30.00,29.92,1,0,4,0.01
2013-6-13,81.0,71.9,65.0,71.0,66.0,61.0,93,82,63,29.91,29.65,7,0,11,0.46
2013-6-14,76.0,66.1,56.0,62.0,55.5,51.0,91,70,46,30.01,29.77,3,0,6,0.02
2013-6-15,76.0,65.7,56.0,64.0,56.7,50.0,87,73,54,30.11,30.01,2,0,3,0.02
2013-6-16,78.0,69.2,60.0,66.0,60.7,56.0,88,75,56,30.11,29.98,0,0,4,0.00
2013-6-17,74.0,68.9,65.0,69.0,64.9,62.0,94,87,79,30.00,29.90,2,0,2,0.80
2013-6-18,70.0,66.2,64.0,68.0,64.3,61.0,95,94,90,29.91,29.80,0,0,3,1.16
2013-6-19,76.0,65.3,59.0,67.0,61.3,57.0,95,88,71,30.07,29.88,2,0,2,0.02
2013-6-20,77.0,66.4,61.0,66.0,61.1,58.0,93,84,61,30.16,30.06,1,0,2,0.02
2013-6-22,78.0,73.6,69.0,65.0,63.5,60.0,81,71,61,30.19,30.06,1,0,4,0.00
2013-6-23,79.0,68.5,61.0,68.0,62.7,57.0,92,83,64,30.17,30.07,3,0,6,0.02
2013-6-24,79.0,70.8,66.0,70.0,65.6,63.0,93,84,64,30.17,30.03,2,0,5,0.02
2013-6-25,77.0,68.8,64.0,69.0,64.5,61.0,93,87,74,30.11,30.04,1,0,3,0.01
2013-6-27,76.0,73.5,71.0,70.0,67.7,65.0,88,82,78,29.79,29.73,3,0,5,0.47
2013-6-28,82.0,71.2,65.0,71.0,66.1,63.0,95,85,58,29.79,29.63,1,0,10,0.38
2013-6-29,78.0,69.2,63.0,67.0,60.9,57.0,95,77,50,29.68,29.61,1,0,3,0.05
2013-6-30,77.0,68.0,59.0,65.0,60.7,56.0,90,78,58,29.76,29.66,0,0,1,0.00
2013-7-1,76.0,67.6,63.0,66.0,62.8,61.0,92,85,61,29.89,29.73,0,0,2,0.06
2013-7-2,77.0,68.9,63.0,66.0,63.2,61.0,94,83,59,30.06,29.88,4,0,9,1.20
2013-7-3,69.0,64.9,62.0,67.0,63.0,60.0,95,94,90,30.16,30.03,0,0,3,3.48
2013-7-4,71.0,65.2,62.0,69.0,63.6,60.0,95,94,91,30.16,30.09,3,0,9,1.03
2013-7-5,73.0,67.5,64.0,67.0,64.1,62.0,95,89,76,30.18,30.11,3,0,6,0.48
2013-7-6,74.0,67.3,65.0,68.0,65.2,63.0,95,92,77,30.14,30.05,2,0,5,1.30
2013-7-7,74.0,68.9,66.0,70.0,66.5,64.0,95,91,81,30.12,30.04,3,0,8,0.54
2013-7-8,80.0,70.1,66.0,72.0,64.8,-99.9,94,87,67,30.14,30.04,2,0,5,0.27
2013-7-9,82.0,70.7,67.0,73.0,67.8,65.0,95,91,71,30.12,30.02,0,0,4,0.22
2013-7-10,82.0,71.1,68.0,72.0,65.4,-99.9,95,86,60,30.08,29.90,4,0,6,0.01
2013-7-11,70.0,69.2,69.0,67.0,66.6,66.0,92,91,90,29.91,29.90,0,0,0,0.01
2013-7-12,74.0,70.4,64.0,67.0,64.9,60.0,92,82,78,29.91,29.83,0,0,0,0.01
2013-7-13,75.0,69.1,63.0,67.0,62.8,59.0,89,81,68,30.04,29.91,2,0,4,0.01
2013-7-14,72.0,69.1,66.0,69.0,65.3,63.0,94,88,79,30.21,30.02,5,0,6,0.31
2013-7-15,77.0,70.1,66.0,69.0,64.9,62.0,92,84,71,30.27,30.19,3,0,3,0.10
2013-7-16,82.0,72.7,66.0,73.0,67.0,63.0,94,83,65,30.29,30.17,0,0,0,0.51
2013-7-17,83.0,70.6,65.0,74.0,67.1,63.0,95,90,66,30.26,30.11,4,0,6,0.55
2013-7-18,80.0,68.7,62.0,73.0,65.5,60.0,96,90,72,30.19,30.05,0,0,5,0.60
2013-7-19,82.0,72.1,66.0,72.0,67.7,64.0,95,87,64,30.11,29.95,0,0,0,0.02
2013-7-20,80.0,69.9,67.0,73.0,65.6,-99.9,95,88,73,30.00,29.90,0,0,0,0.05
2013-7-21,80.0,71.0,68.0,72.0,67.9,66.0,94,90,70,29.97,29.88,0,0,0,0.39
2013-7-22,78.0,69.7,66.0,71.0,66.1,64.0,95,89,74,29.95,29.80,0,0,0,0.06
2013-7-23,80.0,70.2,65.0,70.0,65.7,62.0,93,86,68,29.88,29.76,0,0,0,0.12
2013-7-24,79.0,72.1,68.0,72.0,67.3,64.0,93,85,70,29.82,29.74,0,0,0,0.01
2013-7-25,80.0,68.5,62.0,67.0,62.3,55.0,94,82,44,29.98,29.80,0,0,0,0.01
2013-7-26,78.0,68.1,62.0,68.0,62.3,58.0,94,82,63,30.04,29.97,0,0,1,0.28
2013-7-27,74.0,69.3,66.0,68.0,65.8,64.0,95,89,76,29.98,29.84,0,0,0,0.31
2013-7-28,76.0,68.9,64.0,68.0,63.4,60.0,94,83,65,29.99,29.86,0,0,0,0.03
2013-7-29,78.0,66.5,60.0,63.0,57.3,47.0,94,75,33,30.15,29.98,0,0,0,0.00
2013-7-30,79.0,67.7,58.0,67.0,60.2,55.0,91,78,54,30.19,30.09,0,0,0,0.00
2013-7-31,71.0,68.8,67.0,67.0,65.9,65.0,94,90,84,30.12,29.92,0,0,0,0.10
2013-8-1,80.0,71.0,66.0,74.0,65.7,62.0,95,84,62,29.95,29.86,0,0,0,0.06
2013-8-2,80.0,69.1,61.0,69.0,63.0,58.0,93,81,62,29.99,29.91,0,0,0,0.00
2013-8-3,78.0,70.5,64.0,68.0,64.0,61.0,92,80,59,30.00,29.94,0,0,0,0.00
2013-8-4,79.0,70.7,65.0,69.0,64.1,59.0,93,80,63,29.99,29.93,0,0,0,0.00
2013-8-5,79.0,68.6,62.0,69.0,61.1,57.0,90,78,62,30.03,29.94,0,0,0,0.00
2013-8-6,79.0,71.4,65.0,70.0,66.1,62.0,93,84,68,29.97,29.90,0,0,0,0.03
2013-8-7,74.0,70.3,68.0,69.0,66.9,65.0,94,89,81,29.99,29.94,0,0,0,0.46
2013-8-8,78.0,70.4,68.0,71.0,67.7,66.0,94,91,78,30.01,29.96,0,0,0,0.64
2013-8-9,80.0,71.9,68.0,72.0,68.8,66.0,94,90,73,30.04,29.98,0,0,0,0.33
2013-8-10,77.0,71.2,68.0,73.0,69.0,66.0,94,92,83,30.08,30.01,0,0,0,0.17
2013-8-11,78.0,71.5,68.0,73.0,68.6,66.0,95,91,77,30.12,30.01,0,0,0,0.04
2013-8-12,79.0,70.6,66.0,72.0,67.5,64.0,95,90,76,30.06,29.94,0,0,0,0.02
2013-8-13,77.0,69.3,68.0,70.0,64.4,-99.9,95,87,71,29.96,29.81,0,0,0,0.53
2013-8-14,74.0,66.3,63.0,66.0,61.0,-99.9,94,87,72,29.99,29.85,0,0,0,0.03
2013-8-15,70.0,58.6,60.0,62.0,40.8,-99.9,87,75,72,30.07,29.98,0,0,0,0.00
2013-8-16,69.0,60.5,57.0,62.0,53.2,-99.9,90,83,71,30.09,30.02,0,0,0,0.00
2013-8-17,67.0,62.6,59.0,62.0,58.4,55.0,93,86,77,30.11,30.05,0,0,0,0.07
2013-8-18,71.0,63.7,61.0,66.0,60.3,-99.9,95,92,81,30.18,30.07,2,0,3,0.64
2013-8-19,70.0,62.1,63.0,68.0,50.8,-99.9,95,93,92,30.15,30.04,0,0,0,0.96
2013-8-20,75.0,67.4,64.0,70.0,63.7,-99.9,95,91,80,30.15,30.06,0,0,0,0.13
2013-8-21,70.0,67.8,66.0,68.0,65.7,64.0,94,93,89,30.19,30.09,0,0,0,0.02
2013-8-22,80.0,70.1,64.0,72.0,66.2,62.0,95,88,69,30.15,30.00,0,0,0,0.01
2013-8-23,79.0,68.6,63.0,70.0,64.9,61.0,94,88,67,30.05,29.94,0,0,9,0.45
2013-8-24,78.0,66.8,60.0,68.0,62.6,58.0,95,87,68,30.23,30.03,0,0,0,0.46
2013-8-25,75.0,64.3,57.0,64.0,56.8,-99.9,90,80,63,30.34,30.21,0,0,0,0.01
2013-8-26,74.0,65.6,58.0,66.0,60.5,55.0,93,84,69,30.30,30.11,0,0,0,0.00
2013-8-27,77.0,63.4,59.0,69.0,59.8,56.0,95,89,72,30.14,30.04,0,0,0,0.00
2013-8-28,81.0,75.5,70.0,72.0,68.9,66.0,87,80,71,30.01,29.93,0,0,0,0.00
2013-8-29,82.0,73.9,69.0,74.0,68.5,65.0,89,84,70,29.96,29.87,0,0,0,0.00
2013-8-30,80.0,72.1,67.0,72.0,67.4,64.0,94,85,69,29.97,29.86,0,0,0,0.00
2013-8-31,82.0,73.1,68.0,72.0,68.1,66.0,94,85,63,29.92,29.81,0,0,0,0.00
2013-9-1,81.0,70.7,66.0,72.0,65.2,-99.9,95,86,68,29.88,29.77,0,0,0,0.03
2013-9-2,78.0,70.1,64.0,69.0,65.6,61.0,93,86,71,29.91,29.80,0,0,0,0.03
2013-9-3,78.0,69.3,62.0,70.0,64.3,59.0,94,85,63,29.96,29.81,0,0,1,0.80
2013-9-4,79.0,67.7,60.0,68.0,62.8,58.0,95,85,60,30.08,29.95,0,0,0,0.01
2013-9-5,78.0,68.2,61.0,69.0,63.4,59.0,95,85,62,30.11,30.04,0,0,0,0.00
2013-9-6,78.0,66.8,60.0,66.0,61.8,58.0,95,85,60,30.14,30.02,0,0,0,0.00
2013-9-7,77.0,67.4,60.0,67.0,62.0,58.0,95,84,66,30.09,29.97,0,0,0,0.00
2013-9-8,76.0,67.0,60.0,68.0,61.4,-99.9,95,85,71,29.99,29.92,0,0,0,0.00
2013-9-9,80.0,69.4,61.0,69.0,63.6,58.0,94,83,63,30.09,29.98,0,0,0,0.00
2013-9-10,80.0,70.0,62.0,70.0,64.6,60.0,95,84,64,30.20,30.09,0,0,0,0.00
2013-9-11,80.0,68.8,63.0,69.0,64.9,61.0,96,88,69,30.20,30.06,0,0,0,0.05
2013-9-12,72.0,67.0,64.0,68.0,65.1,63.0,96,93,88,30.08,29.88,0,0,0,0.24
2013-9-13,71.0,64.4,56.0,65.0,59.1,50.0,95,83,63,29.89,29.81,0,0,0,0.22
2013-9-14,71.0,59.4,50.0,58.0,52.2,47.0,91,78,54,30.09,29.88,0,0,0,0.01
2013-9-15,73.0,61.1,57.0,61.0,54.1,-99.9,91,82,61,30.16,30.08,3,0,4,0.00
2013-9-16,76.0,64.8,57.0,65.0,59.0,55.0,95,83,54,30.14,30.05,0,0,3,0.00
2013-9-17,67.0,63.3,61.0,62.0,58.2,55.0,90,84,75,30.20,30.11,0,0,4,0.00
2013-9-18,61.0,59.8,59.0,56.0,54.8,54.0,86,84,82,30.21,30.16,0,0,0,0.00
2013-9-19,75.0,65.3,59.0,65.0,60.6,56.0,93,85,65,30.17,30.04,0,0,4,0.00
2013-9-20,76.0,66.9,60.0,66.0,61.8,58.0,94,84,63,30.06,29.88,3,0,9,0.00
2013-9-21,66.0,64.0,59.0,63.0,61.1,57.0,94,91,86,29.90,29.65,3,0,5,1.18
2013-9-22,70.0,58.6,51.0,60.0,53.4,-99.9,95,86,55,29.89,29.72,1,0,4,0.01
2013-9-23,71.0,60.4,52.0,60.0,55.9,50.0,95,86,64,30.02,29.88,2,0,3,0.01
2013-9-24,69.0,60.9,54.0,63.0,56.6,51.0,93,86,72,30.03,29.90,0,0,3,0.00
2013-9-25,62.0,60.3,59.0,60.0,58.7,58.0,95,94,89,29.91,29.80,0,0,3,1.86
2013-9-26,70.0,61.1,57.0,63.0,58.3,54.0,95,91,77,30.01,29.85,0,0,0,0.09
2013-9-27,70.0,59.7,54.0,62.0,56.3,52.0,95,89,64,30.14,30.01,3,0,3,0.01
2013-9-28,69.0,60.3,53.0,59.0,55.3,50.0,92,84,66,30.20,30.08,4,0,4,0.00
2013-9-29,66.0,58.1,54.0,59.0,52.3,-99.9,89,84,66,30.12,30.00,0,0,3,0.00
2013-9-30,69.0,58.9,53.0,59.0,54.4,50.0,94,86,61,30.07,29.98,0,0,1,0.00
2013-10-1,65.0,61.9,58.0,60.0,57.8,55.0,89,86,83,30.11,30.06,0,0,0,0.00
2013-10-2,73.0,62.8,56.0,64.0,58.5,54.0,95,87,66,30.16,30.05,2,0,4,0.00
2013-10-3,75.0,65.7,59.0,65.0,59.8,57.0,94,82,60,30.12,30.02,0,0,5,0.00
2013-10-4,76.0,63.9,55.0,64.0,59.1,53.0,95,85,62,30.16,30.06,0,0,3,0.00
2013-10-5,77.0,65.2,56.0,65.0,60.3,54.0,95,85,62,30.13,30.00,3,0,4,0.00
2013-10-6,74.0,66.1,60.0,64.0,60.3,58.0,94,82,63,30.02,29.84,10,0,11,0.10
2013-10-7,70.0,60.4,52.0,63.0,57.0,48.0,95,88,70,29.97,29.76,0,0,1,1.01
2013-10-8,69.0,56.9,46.0,60.0,51.5,44.0,95,83,64,30.15,29.97,2,0,4,0.01
2013-10-9,71.0,58.0,49.0,59.0,52.7,47.0,94,83,61,30.17,30.06,2,0,3,0.00
2013-10-10,68.0,59.5,49.0,57.0,52.9,47.0,95,80,59,30.10,30.00,1,0,10,0.00
2013-10-11,71.0,57.9,47.0,58.0,51.8,45.0,95,81,52,30.05,29.96,3,0,5,0.00
2013-10-12,71.0,59.2,49.0,61.0,53.9,47.0,94,83,62,30.10,29.99,0,0,6,0.00
2013-10-13,67.0,60.2,56.0,61.0,55.2,-99.9,93,86,76,30.16,30.09,0,0,0,0.00
2013-10-14,67.0,60.7,55.0,60.0,57.2,53.0,95,88,75,30.19,30.09,0,0,0,0.00
2013-10-15,69.0,60.8,54.0,59.0,55.3,51.0,90,83,70,30.13,29.98,3,0,3,0.00
2013-10-16,64.0,58.3,54.0,58.0,54.7,52.0,93,88,76,30.03,29.92,0,0,1,0.01
2013-10-17,63.0,59.4,56.0,61.0,57.5,53.0,95,93,90,29.96,29.83,2,0,4,0.18
2013-10-18,65.0,56.3,49.0,55.0,50.7,47.0,94,83,52,29.99,29.89,0,0,1,0.01
2013-10-19,59.0,53.2,50.0,54.0,48.7,43.0,95,85,57,29.95,29.86,9,0,9,0.00
2013-10-20,61.0,48.4,38.0,46.0,39.7,-99.9,93,76,36,30.08,29.94,2,0,3,0.00
2013-10-21,63.0,51.1,40.0,51.0,45.2,38.0,93,81,56,30.14,30.00,1,0,3,0.00
2013-10-22,65.0,55.9,50.0,53.0,49.1,44.0,93,79,59,30.02,29.81,1,0,5,0.00
2013-10-23,51.0,45.4,35.0,45.0,37.2,28.0,85,74,58,30.04,29.75,8,0,11,0.00
2013-10-24,53.0,41.2,34.0,39.0,33.4,28.0,87,74,51,30.19,30.03,5,0,10,0.00
2013-10-25,49.0,41.1,31.0,34.0,25.7,23.0,76,56,37,30.37,30.20,4,0,6,0.00
2013-10-26,55.0,41.1,28.0,37.0,29.0,24.0,87,64,36,30.36,30.15,2,0,3,0.00
2013-10-27,59.0,52.2,47.0,51.0,43.3,-99.9,84,74,64,30.15,30.06,1,0,6,0.00
2013-10-28,60.0,53.3,50.0,53.0,48.0,-99.9,94,86,69,30.25,30.10,1,0,3,0.09
2013-10-29,66.0,54.8,47.0,53.0,48.4,45.0,94,81,53,30.34,30.23,3,0,7,0.01
2013-10-30,71.0,61.1,54.0,57.0,53.5,50.0,90,77,57,30.28,30.13,5,0,9,0.00
2013-10-31,63.0,60.0,58.0,58.0,54.2,50.0,93,81,70,30.14,29.78,14,1,14,0.12
2013-11-1,60.0,60.0,60.0,58.0,58.0,58.0,92,92,92,29.79,29.78,8,2,8,0.13
2013-11-2,55.0,53.7,52.0,43.0,40.9,38.0,63,61,59,29.83,29.81,3,1,4,0.02
2013-11-3,58.0,51.5,45.0,39.0,36.6,33.0,75,58,39,30.32,30.16,4,0,6,0.01
2013-11-4,56.0,46.2,40.0,37.0,34.8,33.0,79,65,46,30.45,30.32,1,0,5,0.00
2013-11-5,64.0,48.5,39.0,42.0,35.4,30.0,80,62,35,30.47,30.35,3,0,4,0.00
2013-11-6,64.0,55.5,49.0,53.0,47.6,30.0,93,76,47,30.40,30.10,3,0,8,0.02
2013-11-7,58.0,51.4,38.0,54.0,44.4,29.0,94,78,59,30.15,29.98,3,0,8,0.12
2013-11-8,55.0,42.9,33.0,30.0,23.1,17.0,77,49,23,30.32,30.15,3,0,10,0.01
2013-11-9,51.0,43.0,34.0,34.0,26.0,-99.9,71,53,41,30.35,30.24,0,0,3,0.00
2013-11-10,65.0,53.1,41.0,39.0,31.1,24.0,66,44,26,30.28,30.19,6,0,9,0.00
2013-11-11,62.0,48.9,37.0,34.0,30.0,26.0,68,50,28,30.30,30.15,1,0,4,0.00
2013-11-12,50.0,39.1,24.0,37.0,26.5,13.0,77,61,46,30.42,30.10,2,0,8,0.00
2013-11-13,46.0,32.3,21.0,17.0,14.0,11.0,71,49,27,30.59,30.42,5,0,8,0.00
2013-11-14,56.0,40.5,27.0,21.0,17.2,13.0,61,41,21,30.51,30.32,4,0,8,0.00
2013-11-15,49.0,41.4,34.0,47.0,32.4,15.0,94,73,38,30.36,30.19,0,0,2,0.27
2013-11-16,60.0,52.6,49.0,53.0,48.0,-99.9,95,88,75,30.24,30.13,0,0,5,0.02
2013-11-17,59.0,57.1,55.0,57.0,54.4,51.0,94,91,85,30.16,29.88,5,0,7,0.47
2013-11-18,62.0,54.9,43.0,60.0,43.3,31.0,94,67,39,30.01,29.83,8,1,9,0.20
2013-11-19,55.0,44.6,35.0,34.0,28.0,23.0,70,54,29,30.18,30.01,4,0,10,0.01
2013-11-20,52.0,42.9,35.0,33.0,27.1,23.0,65,54,37,30.39,30.19,3,0,6,0.00
2013-11-21,54.0,49.0,42.0,51.0,42.3,30.0,93,78,61,30.42,30.32,1,0,1,0.02
2013-11-22,62.0,56.0,53.0,57.0,53.3,51.0,95,91,81,30.35,30.11,3,0,5,0.10
2013-11-23,55.0,45.5,31.0,52.0,37.2,-99.9,91,76,48,30.22,30.07,3,0,10,0.01
2013-11-24,44.0,31.9,22.0,21.0,11.1,3.0,69,45,18,30.48,30.22,5,0,6,0.00
2013-11-25,41.0,33.3,24.0,31.0,14.7,6.0,86,48,24,30.50,30.29,1,0,3,0.02
2013-11-26,45.0,43.0,35.0,44.0,41.4,32.0,95,94,87,30.27,29.64,0,0,1,3.50
2013-11-27,42.0,29.2,20.0,41.0,25.3,15.0,95,85,74,30.22,29.63,6,1,9,0.25
2013-11-28,44.0,28.5,18.0,30.0,19.8,14.0,85,71,50,30.51,30.22,2,0,3,0.06
2013-11-29,53.0,38.5,27.0,33.0,25.9,19.0,81,61,42,30.58,30.46,3,0,3,0.01
2013-11-30,51.0,39.3,33.0,29.0,23.2,-99.9,66,54,37,30.55,30.34,4,0,5,0.01
2013-12-1,55.0,43.9,35.0,37.0,31.1,24.0,82,61,46,30.34,30.03,3,0,4,0.00
2013-12-2,49.0,43.9,39.0,43.0,37.4,32.0,84,78,71,30.01,29.80,0,0,5,0.00
2013-12-3,52.0,48.9,46.0,49.0,45.9,42.0,92,89,82,29.91,29.84,0,0,2,0.01
2013-12-4,63.0,55.9,51.0,54.0,51.7,48.0,94,86,72,30.03,29.90,6,0,8,0.01
2013-12-5,68.0,61.5,58.0,61.0,57.9,54.0,94,88,77,30.03,29.93,2,0,4,0.43
2013-12-6,66.0,62.4,55.0,61.0,59.5,53.0,94,91,82,29.98,29.87,9,1,13,0.94
2013-12-7,55.0,45.8,41.0,53.0,42.5,-99.9,95,91,87,30.28,29.95,1,0,4,0.02
2013-12-8,48.0,43.0,41.0,47.0,41.2,39.0,95,93,90,30.28,30.16,3,0,3,0.80
2013-12-9,54.0,50.0,46.0,53.0,48.8,44.0,95,95,92,30.16,29.98,0,0,5,0.86
2013-12-10,50.0,40.6,29.0,49.0,35.9,21.0,95,84,65,30.30,29.88,6,0,8,0.65
2013-12-11,48.0,32.5,24.0,29.0,20.4,13.0,83,62,30,30.48,30.31,2,0,4,0.01
2013-12-12,33.0,30.4,28.0,22.0,20.5,19.0,69,66,61,30.37,30.37,0,0,0,0.00
2013-12-27,50.0,43.7,36.0,29.0,25.5,23.0,59,49,38,30.44,30.38,0,0,3,0.80
2013-12-28,45.0,35.4,30.0,37.0,27.8,-99.9,93,77,46,30.44,30.08,0,0,0,0.60
2013-12-29,53.0,44.9,38.0,45.0,40.2,32.0,94,84,68,30.08,29.83,6,0,7,1.23
2013-12-30,46.0,41.4,38.0,38.0,35.1,29.0,86,78,65,30.14,29.98,3,0,8,0.01
2013-12-31,42.0,35.2,31.0,30.0,21.6,18.0,74,58,43,30.38,30.14,4,0,11,0.00
2014-1-1,44.0,36.1,29.0,28.0,23.5,19.0,75,61,43,30.39,30.16,0,0,3,0.00
2014-1-2,43.0,34.7,17.0,41.0,30.5,12.0,94,85,67,30.16,29.72,13,1,13,0.31